createdAt,value
2023-01-09T00:00:50.455Z,7.07
2023-01-09T00:02:52.622Z,6.83
2023-01-09T00:04:54.689Z,7.60
2023-01-09T00:06:56.772Z,6.80
2023-01-09T00:08:58.864Z,6.37
2023-01-09T00:11:00.972Z,6.67
2023-01-09T00:13:02.991Z,7.13
2023-01-09T00:15:05.597Z,7.27
2023-01-09T00:17:07.495Z,7.50
2023-01-09T00:19:10.094Z,7.70
2023-01-09T00:21:15.017Z,7.60
2023-01-09T00:23:17.122Z,6.63
2023-01-09T00:25:19.208Z,7.60
2023-01-09T00:27:21.286Z,8.57
2023-01-09T00:29:23.306Z,8.30
2023-01-09T00:31:25.450Z,7.13
2023-01-09T00:34:00.598Z,8.23
2023-01-09T00:36:02.933Z,7.80
2023-01-09T00:38:05.053Z,7.37
2023-01-09T00:40:07.543Z,7.93
2023-01-09T00:42:16.076Z,7.87
2023-01-09T00:44:22.292Z,7.57
2023-01-09T00:46:29.826Z,8.83
2023-01-09T00:48:32.523Z,8.50
2023-01-09T00:50:35.515Z,9.10
2023-01-09T00:52:38.571Z,8.57
2023-01-09T00:54:41.307Z,8.57
2023-01-09T00:56:43.646Z,9.50
2023-01-09T00:58:45.876Z,8.67
2023-01-09T01:00:47.994Z,9.37
2023-01-09T01:02:50.160Z,9.07
2023-01-09T01:05:10.944Z,8.60
2023-01-09T01:07:31.593Z,9.47
2023-01-09T01:09:33.621Z,8.80
2023-01-09T01:11:36.016Z,9.20
2023-01-09T01:13:39.316Z,9.80
2023-01-09T01:15:42.676Z,9.90
2023-01-09T01:17:44.798Z,8.67
2023-01-09T01:19:47.070Z,9.63
2023-01-09T01:21:49.200Z,8.77
2023-01-09T01:23:51.266Z,9.50
2023-01-09T01:25:53.409Z,8.73
2023-01-09T01:27:56.076Z,9.23
2023-01-09T01:29:58.062Z,10.00
2023-01-09T01:32:00.126Z,8.90
2023-01-09T01:34:02.226Z,9.10
2023-01-09T01:36:06.732Z,9.90
2023-01-09T01:38:08.731Z,10.90
2023-01-09T01:40:11.659Z,9.50
2023-01-09T01:42:14.273Z,9.30
2023-01-09T01:44:53.959Z,9.50
2023-01-09T01:46:56.781Z,8.37
2023-01-09T01:49:12.932Z,8.97
2023-01-09T01:51:16.939Z,9.43
2023-01-09T01:53:36.065Z,9.30
2023-01-09T01:55:41.787Z,8.70
2023-01-09T01:57:46.473Z,9.40
2023-01-09T01:59:51.787Z,9.07
2023-01-09T02:01:57.088Z,8.17
2023-01-09T02:04:00.974Z,8.60
2023-01-09T02:06:04.875Z,8.17
2023-01-09T02:08:07.813Z,8.10
2023-01-09T02:10:10.241Z,7.20
2023-01-09T02:12:23.832Z,8.80
2023-01-09T02:14:28.313Z,8.13
2023-01-09T02:16:38.989Z,7.90
2023-01-09T02:18:46.173Z,8.20
2023-01-09T02:20:56.386Z,8.20
2023-01-09T02:23:27.049Z,7.03
2023-01-09T02:26:17.207Z,7.90
2023-01-09T02:29:00.892Z,7.80
2023-01-09T02:31:27.776Z,7.37
2023-01-09T02:33:33.922Z,8.03
2023-01-09T02:35:54.762Z,7.37
2023-01-09T02:38:15.419Z,6.97
2023-01-09T02:40:39.827Z,8.43
2023-01-09T02:42:42.176Z,7.73
2023-01-09T02:44:44.540Z,7.80
2023-01-09T02:46:46.755Z,8.03
2023-01-09T02:48:53.154Z,8.10
2023-01-09T02:51:06.406Z,7.23
2023-01-09T02:53:31.670Z,7.80
2023-01-09T02:55:58.343Z,7.80
2023-01-09T02:58:15.459Z,7.23
2023-01-09T03:00:41.992Z,6.73
2023-01-09T03:02:57.793Z,7.00
2023-01-09T03:05:18.065Z,6.70
2023-01-09T03:07:37.077Z,7.43
2023-01-09T03:09:41.645Z,6.90
2023-01-09T03:11:51.829Z,6.33
2023-01-09T03:13:55.861Z,6.50
2023-01-09T03:15:58.748Z,6.33
2023-01-09T03:18:01.275Z,6.37
2023-01-09T03:20:05.846Z,6.00
2023-01-09T03:22:08.621Z,6.17
2023-01-09T03:24:11.004Z,7.00
2023-01-09T03:26:13.016Z,6.37
2023-01-09T03:28:29.135Z,6.20
2023-01-09T03:30:32.380Z,6.70
2023-01-09T03:32:34.528Z,6.20
2023-01-09T03:34:36.747Z,6.23
2023-01-09T03:36:39.014Z,6.47
2023-01-09T03:38:41.166Z,5.73
2023-01-09T03:40:46.131Z,6.67
2023-01-09T03:42:48.141Z,6.10
2023-01-09T03:44:52.021Z,7.53
2023-01-09T03:46:54.045Z,6.53
2023-01-09T03:48:56.059Z,6.00
2023-01-09T03:50:58.459Z,6.27
2023-01-09T03:53:00.566Z,5.80
2023-01-09T03:55:02.827Z,6.03
2023-01-09T03:57:05.000Z,7.07
2023-01-09T03:59:07.154Z,7.10
2023-01-09T04:01:12.722Z,8.50
2023-01-09T04:03:16.908Z,7.20
2023-01-09T04:05:18.993Z,7.60
2023-01-09T04:07:21.112Z,7.90
2023-01-09T04:09:23.095Z,8.30
2023-01-09T04:11:25.178Z,8.43
2023-01-09T04:13:27.193Z,8.13
2023-01-09T04:15:29.228Z,7.43
2023-01-09T04:17:31.275Z,8.00
2023-01-09T04:19:36.042Z,8.37
2023-01-09T04:21:38.041Z,8.60
2023-01-09T04:23:40.132Z,8.70
2023-01-09T04:25:42.271Z,9.03
2023-01-09T04:27:44.347Z,8.70
2023-01-09T04:29:46.528Z,8.00
2023-01-09T04:31:48.586Z,8.67
2023-01-09T04:33:50.688Z,8.47
2023-01-09T04:35:52.753Z,8.80
2023-01-09T04:37:54.795Z,9.30
2023-01-09T04:39:57.219Z,8.57
2023-01-09T04:41:59.283Z,9.00
2023-01-09T04:44:01.457Z,10.03
2023-01-09T04:46:03.522Z,10.03
2023-01-09T04:48:06.137Z,10.80
2023-01-09T04:50:09.177Z,10.43
2023-01-09T04:52:11.323Z,10.90
2023-01-09T04:54:13.527Z,12.30
2023-01-09T04:56:15.526Z,11.37
2023-01-09T04:58:17.556Z,11.20
2023-01-09T05:00:19.837Z,11.30
2023-01-09T05:02:21.892Z,9.80
2023-01-09T05:04:24.842Z,11.33
2023-01-09T05:06:27.006Z,11.30
2023-01-09T05:08:29.083Z,9.97
2023-01-09T05:10:31.080Z,11.10
2023-01-09T05:12:34.706Z,10.00
2023-01-09T05:14:36.892Z,11.47
2023-01-09T05:16:38.978Z,10.90
2023-01-09T05:18:41.077Z,10.27
2023-01-09T05:20:43.180Z,10.50
2023-01-09T05:22:45.342Z,9.90
2023-01-09T05:24:47.594Z,10.60
2023-01-09T05:26:49.591Z,11.40
2023-01-09T05:28:52.472Z,9.50
2023-01-09T05:30:54.536Z,9.77
2023-01-09T05:32:56.673Z,10.63
2023-01-09T05:34:58.751Z,10.40
2023-01-09T05:37:00.797Z,10.63
2023-01-09T05:39:03.373Z,11.77
2023-01-09T05:41:05.664Z,12.40
2023-01-09T05:43:08.121Z,11.20
2023-01-09T05:45:10.794Z,11.37
2023-01-09T05:47:12.860Z,11.63
2023-01-09T05:49:15.015Z,12.23
2023-01-09T05:51:17.559Z,12.30
2023-01-09T05:53:19.576Z,11.40
2023-01-09T05:55:21.597Z,11.67
2023-01-09T05:57:23.689Z,11.20
2023-01-09T05:59:25.794Z,10.80
2023-01-09T06:01:27.901Z,11.67
2023-01-09T06:03:30.385Z,11.63
2023-01-09T06:05:32.562Z,12.33
2023-01-09T06:07:36.695Z,10.77
2023-01-09T06:09:38.738Z,11.27
2023-01-09T06:11:41.464Z,10.27
2023-01-09T06:13:43.676Z,10.07
2023-01-09T06:15:47.759Z,9.70
2023-01-09T06:17:49.849Z,10.17
2023-01-09T06:19:51.957Z,10.50
2023-01-09T06:21:54.085Z,10.33
2023-01-09T06:23:56.638Z,9.30
2023-01-09T06:25:58.680Z,9.60
2023-01-09T06:28:00.746Z,9.33
2023-01-09T06:30:03.041Z,9.53
2023-01-09T06:32:05.750Z,8.67
2023-01-09T06:34:08.646Z,9.27
2023-01-09T06:36:10.761Z,8.83
2023-01-09T06:38:12.831Z,8.13
2023-01-09T06:40:14.996Z,8.77
2023-01-09T06:42:17.107Z,8.10
2023-01-09T06:44:19.184Z,10.50
2023-01-09T06:46:21.317Z,8.63
2023-01-09T06:48:25.114Z,10.00
2023-01-09T06:50:27.342Z,10.07
2023-01-09T06:52:29.413Z,8.60
2023-01-09T06:54:31.654Z,8.27
2023-01-09T06:56:33.770Z,8.40
2023-01-09T06:58:35.859Z,8.03
2023-01-09T07:00:38.399Z,8.50
2023-01-09T07:02:40.489Z,8.60
2023-01-09T07:04:42.546Z,8.70
2023-01-09T07:06:48.248Z,8.20
2023-01-09T07:08:50.341Z,8.40
2023-01-09T07:10:52.333Z,7.43
2023-01-09T07:12:54.478Z,7.67
2023-01-09T07:14:57.679Z,8.60
2023-01-09T07:16:59.833Z,7.77
2023-01-09T07:19:01.938Z,7.43
2023-01-09T07:21:06.170Z,8.10
2023-01-09T07:23:12.042Z,8.00
2023-01-09T07:25:14.184Z,7.77
2023-01-09T07:27:16.194Z,7.83
2023-01-09T07:29:18.207Z,7.20
2023-01-09T07:31:20.242Z,7.23
2023-01-09T07:33:22.363Z,8.23
2023-01-09T07:35:24.496Z,7.83
2023-01-09T07:37:26.583Z,6.60
2023-01-09T07:39:28.711Z,7.80
2023-01-09T07:41:30.845Z,7.53
2023-01-09T07:43:33.111Z,7.57
2023-01-09T07:45:35.253Z,7.80
2023-01-09T07:47:37.363Z,7.30
2023-01-09T07:49:39.492Z,7.97
2023-01-09T07:51:43.303Z,8.17
2023-01-09T07:53:45.356Z,8.43
2023-01-09T07:55:47.375Z,7.80
2023-01-09T07:57:50.452Z,7.03
2023-01-09T07:59:52.451Z,7.57
2023-01-09T08:01:54.565Z,7.40
2023-01-09T08:03:56.731Z,7.33
2023-01-09T08:05:59.234Z,7.10
2023-01-09T08:08:01.986Z,7.17
2023-01-09T08:10:04.446Z,7.23
2023-01-09T08:12:06.500Z,6.73
2023-01-09T08:14:08.559Z,7.87
2023-01-09T08:16:10.621Z,6.30
2023-01-09T08:18:12.635Z,8.67
2023-01-09T08:20:16.198Z,7.37
2023-01-09T08:22:18.280Z,7.07
2023-01-09T08:24:20.433Z,7.73
2023-01-09T08:26:22.489Z,6.63
2023-01-09T08:28:24.607Z,7.10
2023-01-09T08:30:26.685Z,7.90
2023-01-09T08:32:28.710Z,6.20
2023-01-09T08:34:32.348Z,6.40
2023-01-09T08:36:34.430Z,5.33
2023-01-09T08:38:36.561Z,5.50
2023-01-09T08:40:38.754Z,5.50
2023-01-09T08:42:59.754Z,4.87
2023-01-09T08:45:20.581Z,5.30
2023-01-09T08:47:23.872Z,4.60
2023-01-09T08:49:25.982Z,5.10
2023-01-09T08:51:28.118Z,4.20
2023-01-09T08:53:31.512Z,3.93
2023-01-09T08:55:33.636Z,4.37
2023-01-09T08:57:35.719Z,3.50
2023-01-09T08:59:37.705Z,3.40
2023-01-09T09:01:39.923Z,3.13
2023-01-09T09:03:41.959Z,3.57
2023-01-09T09:05:46.694Z,3.40
2023-01-09T09:07:50.004Z,2.57
2023-01-09T09:09:53.705Z,2.90
2023-01-09T09:11:55.923Z,2.87
2023-01-09T09:13:58.183Z,2.40
2023-01-09T09:16:00.313Z,2.70
2023-01-09T09:18:04.411Z,2.90
2023-01-09T09:20:08.453Z,3.40
2023-01-09T09:22:10.535Z,2.70
2023-01-09T09:24:12.520Z,2.40
2023-01-09T09:26:14.590Z,2.33
2023-01-09T09:28:16.636Z,3.03
2023-01-09T09:30:20.072Z,2.77
2023-01-09T09:32:22.209Z,2.63
2023-01-09T09:34:24.222Z,2.10
2023-01-09T09:36:26.246Z,2.63
2023-01-09T09:38:28.266Z,2.60
2023-01-09T09:40:51.147Z,2.23
2023-01-09T09:43:20.922Z,2.77
2023-01-09T09:45:26.802Z,2.97
2023-01-09T09:47:43.585Z,3.80
2023-01-09T09:50:16.682Z,2.87
2023-01-09T09:52:33.955Z,2.33
2023-01-09T09:54:47.940Z,2.27
2023-01-09T09:56:53.017Z,1.93
2023-01-09T09:59:05.301Z,2.50
2023-01-09T10:01:08.555Z,1.97
2023-01-09T10:03:20.460Z,2.30
2023-01-09T10:05:29.295Z,2.60
2023-01-09T10:07:39.364Z,1.80
2023-01-09T10:09:47.739Z,3.10
2023-01-09T10:12:29.944Z,2.10
2023-01-09T10:14:32.290Z,2.13
2023-01-09T10:16:40.453Z,2.43
2023-01-09T10:19:19.484Z,2.00
2023-01-09T10:21:37.124Z,1.90
2023-01-09T10:23:53.379Z,1.90
2023-01-09T10:26:02.221Z,2.10
2023-01-09T10:28:41.962Z,2.00
2023-01-09T10:30:54.399Z,2.00
2023-01-09T10:33:20.792Z,2.03
2023-01-09T10:35:47.811Z,2.07
2023-01-09T10:37:53.493Z,2.20
2023-01-09T10:40:18.437Z,1.43
2023-01-09T10:42:24.122Z,1.80
2023-01-09T10:44:39.348Z,1.93
2023-01-09T10:46:45.852Z,1.90
2023-01-09T10:48:53.415Z,1.60
2023-01-09T10:50:56.756Z,1.50
2023-01-09T10:52:59.450Z,1.37
2023-01-09T10:55:17.711Z,2.00
2023-01-09T10:57:32.535Z,1.50
2023-01-09T10:59:35.600Z,1.40
2023-01-09T11:01:40.606Z,1.70
2023-01-09T11:03:42.673Z,1.80
2023-01-09T11:05:52.839Z,1.83
2023-01-09T11:08:11.425Z,2.03
2023-01-09T11:10:16.034Z,1.67
2023-01-09T11:12:26.179Z,1.90
2023-01-09T11:14:31.275Z,1.53
2023-01-09T11:16:33.633Z,1.53
2023-01-09T11:18:38.722Z,1.50
2023-01-09T11:20:40.884Z,1.40
2023-01-09T11:22:44.355Z,2.03
2023-01-09T11:24:46.647Z,1.30
2023-01-09T11:26:51.536Z,1.70
2023-01-09T11:29:16.860Z,1.50
2023-01-09T11:31:21.937Z,1.47
2023-01-09T11:33:30.131Z,2.10
2023-01-09T11:35:34.736Z,1.30
2023-01-09T11:37:37.100Z,1.20
2023-01-09T11:39:41.864Z,1.20
2023-01-09T11:41:44.005Z,2.50
2023-01-09T11:43:48.644Z,1.10
2023-01-09T11:46:01.615Z,1.70
2023-01-09T11:48:17.133Z,1.20
2023-01-09T11:50:23.214Z,1.57
2023-01-09T11:52:26.571Z,1.73
2023-01-09T11:54:31.748Z,1.27
2023-01-09T11:56:36.332Z,1.10
2023-01-09T11:58:38.360Z,1.70
2023-01-09T12:00:54.286Z,2.00
2023-01-09T12:03:20.607Z,2.30
2023-01-09T12:05:42.475Z,1.00
2023-01-09T12:08:06.906Z,1.27
2023-01-09T12:10:25.479Z,1.40
2023-01-09T12:13:06.163Z,1.50
2023-01-09T12:15:46.922Z,1.33
2023-01-09T12:18:11.145Z,2.20
2023-01-09T12:20:16.708Z,1.73
2023-01-09T12:22:24.728Z,1.70
2023-01-09T12:24:44.654Z,3.90
2023-01-09T12:26:55.746Z,2.97
2023-01-09T12:29:12.635Z,1.63
2023-01-09T12:31:26.085Z,1.73
2023-01-09T12:33:36.875Z,1.20
2023-01-09T12:36:05.013Z,1.80
2023-01-09T12:38:26.292Z,2.17
2023-01-09T12:41:01.660Z,1.93
2023-01-09T12:43:16.729Z,2.77
2023-01-09T12:45:37.524Z,1.63
2023-01-09T12:47:47.345Z,2.60
2023-01-09T12:50:08.959Z,1.50
2023-01-09T12:52:30.720Z,1.70
2023-01-09T12:54:41.464Z,2.13
2023-01-09T12:57:09.195Z,1.70
2023-01-09T12:59:18.034Z,1.57
2023-01-09T13:01:24.915Z,1.60
2023-01-09T13:03:34.915Z,1.57
2023-01-09T13:05:44.645Z,1.77
2023-01-09T13:07:50.133Z,2.47
2023-01-09T13:10:02.912Z,1.97
2023-01-09T13:12:13.241Z,1.40
2023-01-09T13:14:22.308Z,1.97
2023-01-09T13:16:31.245Z,2.60
2023-01-09T13:18:42.030Z,3.20
2023-01-09T13:20:45.048Z,2.10
2023-01-09T13:22:50.761Z,2.40
2023-01-09T13:25:29.475Z,1.60
2023-01-09T13:27:35.284Z,1.90
2023-01-09T13:29:42.085Z,2.00
2023-01-09T13:31:59.184Z,1.73
2023-01-09T13:34:02.916Z,1.80
2023-01-09T13:36:06.769Z,1.60
2023-01-09T13:38:17.602Z,1.80
2023-01-09T13:40:19.655Z,2.40
2023-01-09T13:42:36.809Z,1.60
2023-01-09T13:44:39.874Z,1.40
2023-01-09T13:46:44.209Z,3.50
2023-01-09T13:48:46.601Z,1.40
2023-01-09T13:50:50.984Z,1.33
2023-01-09T13:52:53.270Z,1.47
2023-01-09T13:54:55.389Z,1.63
2023-01-09T13:57:32.565Z,1.60
2023-01-09T13:59:34.623Z,3.03
2023-01-09T14:01:39.922Z,1.63
2023-01-09T14:03:42.126Z,2.00
2023-01-09T14:05:44.201Z,1.83
2023-01-09T14:07:49.611Z,1.60
2023-01-09T14:09:56.201Z,2.20
2023-01-09T14:12:05.337Z,2.07
2023-01-09T14:14:19.897Z,1.80
2023-01-09T14:16:27.265Z,1.80
2023-01-09T14:18:32.815Z,1.50
2023-01-09T14:20:39.522Z,2.10
2023-01-09T14:22:50.410Z,2.70
2023-01-09T14:25:07.709Z,1.60
2023-01-09T14:27:47.504Z,2.43
2023-01-09T14:29:49.634Z,1.53
2023-01-09T14:31:51.697Z,2.90
2023-01-09T14:34:32.019Z,2.27
2023-01-09T14:36:34.497Z,1.70
2023-01-09T14:38:59.100Z,2.00
2023-01-09T14:41:03.876Z,2.03
2023-01-09T14:43:14.560Z,3.50
2023-01-09T14:45:21.745Z,3.50
2023-01-09T14:47:44.400Z,2.90
2023-01-09T14:50:07.204Z,2.17
2023-01-09T14:52:32.112Z,2.63
2023-01-09T14:54:41.281Z,2.33
2023-01-09T14:56:46.477Z,2.70
2023-01-09T14:58:48.697Z,6.57
2023-01-09T15:01:01.397Z,3.73
2023-01-09T15:03:03.901Z,4.37
2023-01-09T15:05:09.623Z,2.27
2023-01-09T15:07:21.090Z,1.60
2023-01-09T15:09:34.101Z,2.10
2023-01-09T15:11:38.551Z,1.80
2023-01-09T15:13:44.383Z,1.93
2023-01-09T15:15:50.089Z,1.77
2023-01-09T15:17:55.663Z,1.50
2023-01-09T15:20:00.038Z,1.87
2023-01-09T15:22:07.084Z,1.70
2023-01-09T15:24:28.753Z,1.80
2023-01-09T15:26:31.124Z,1.77
2023-01-09T15:28:33.245Z,2.13
2023-01-09T15:30:36.011Z,1.43
2023-01-09T15:32:39.569Z,1.73
2023-01-09T15:34:44.295Z,2.00
2023-01-09T15:36:49.250Z,2.30
2023-01-09T15:38:52.248Z,2.20
2023-01-09T15:40:59.746Z,2.23
2023-01-09T15:43:02.052Z,2.03
2023-01-09T15:45:05.186Z,2.83
2023-01-09T15:47:11.260Z,2.97
2023-01-09T15:49:14.027Z,3.30
2023-01-09T15:51:19.710Z,3.60
2023-01-09T15:53:23.389Z,3.87
2023-01-09T15:55:35.944Z,2.40
2023-01-09T15:57:38.132Z,2.37
2023-01-09T15:59:40.304Z,6.80
2023-01-09T16:01:42.464Z,4.60
2023-01-09T16:03:44.767Z,3.47
2023-01-09T16:05:51.113Z,2.30
2023-01-09T16:07:53.184Z,2.77
2023-01-09T16:09:55.339Z,3.90
2023-01-09T16:12:00.659Z,4.00
2023-01-09T16:14:28.757Z,2.90
2023-01-09T16:16:33.728Z,1.77
2023-01-09T16:18:38.463Z,2.97
2023-01-09T16:20:40.512Z,2.00
2023-01-09T16:22:56.289Z,1.80
2023-01-09T16:25:28.957Z,1.80
2023-01-09T16:27:34.329Z,2.30
2023-01-09T16:29:38.921Z,1.93
2023-01-09T16:31:41.089Z,2.20
2023-01-09T16:33:49.894Z,2.40
2023-01-09T16:35:52.532Z,2.07
2023-01-09T16:37:54.598Z,2.00
2023-01-09T16:40:24.293Z,1.70
2023-01-09T16:42:45.092Z,2.13
2023-01-09T16:44:47.157Z,1.90
2023-01-09T16:46:49.240Z,2.10
2023-01-09T16:48:51.643Z,1.87
2023-01-09T16:50:53.749Z,2.17
2023-01-09T16:52:57.104Z,1.97
2023-01-09T16:54:59.167Z,2.10
2023-01-09T16:57:01.683Z,2.13
2023-01-09T16:59:04.768Z,1.83
2023-01-09T17:01:06.975Z,2.00
2023-01-09T17:03:14.796Z,1.90
2023-01-09T17:05:16.860Z,2.53
2023-01-09T17:07:19.336Z,1.90
2023-01-09T17:09:24.074Z,2.23
2023-01-09T17:11:31.617Z,2.40
2023-01-09T17:13:33.962Z,2.40
2023-01-09T17:15:36.070Z,2.13
2023-01-09T17:17:38.169Z,2.33
2023-01-09T17:19:40.574Z,2.10
2023-01-09T17:21:42.659Z,2.20
2023-01-09T17:23:45.081Z,2.80
2023-01-09T17:26:06.285Z,2.50
2023-01-09T17:28:35.827Z,2.17
2023-01-09T17:30:37.858Z,1.97
2023-01-09T17:32:39.937Z,2.33
2023-01-09T17:34:42.520Z,2.20
2023-01-09T17:36:44.703Z,2.00
2023-01-09T17:38:47.299Z,2.20
2023-01-09T17:40:50.058Z,2.97
2023-01-09T17:42:52.253Z,2.20
2023-01-09T17:44:55.668Z,2.30
2023-01-09T17:46:57.778Z,2.40
2023-01-09T17:49:00.635Z,3.20
2023-01-09T17:51:02.710Z,2.97
2023-01-09T17:53:04.778Z,4.30
2023-01-09T17:55:08.465Z,6.30
2023-01-09T17:57:15.776Z,6.07
2023-01-09T17:59:18.417Z,4.90
2023-01-09T18:01:20.721Z,6.87
2023-01-09T18:03:30.998Z,5.77
2023-01-09T18:05:34.039Z,6.90
2023-01-09T18:07:36.057Z,5.60
2023-01-09T18:09:38.272Z,5.53
2023-01-09T18:11:40.829Z,4.20
2023-01-09T18:13:43.145Z,3.60
2023-01-09T18:15:45.626Z,4.00
2023-01-09T18:17:47.700Z,3.60
2023-01-09T18:19:50.801Z,3.60
2023-01-09T18:21:52.878Z,3.53
2023-01-09T18:23:55.968Z,4.57
2023-01-09T18:25:58.076Z,2.80
2023-01-09T18:28:00.893Z,2.73
2023-01-09T18:30:05.626Z,2.50
2023-01-09T18:32:08.049Z,2.70
2023-01-09T18:34:10.288Z,4.50
2023-01-09T18:36:12.608Z,4.30
2023-01-09T18:38:15.618Z,3.63
2023-01-09T18:40:17.845Z,4.10
2023-01-09T18:42:20.020Z,3.13
2023-01-09T18:44:22.818Z,3.23
2023-01-09T18:46:26.102Z,2.83
2023-01-09T18:48:28.229Z,2.73
2023-01-09T18:50:30.317Z,2.40
2023-01-09T18:52:32.387Z,3.10
2023-01-09T18:54:34.514Z,3.00
2023-01-09T18:56:36.649Z,2.80
2023-01-09T18:58:38.691Z,3.47
2023-01-09T19:00:41.712Z,3.80
2023-01-09T19:02:43.951Z,3.90
2023-01-09T19:04:46.177Z,4.17
2023-01-09T19:06:48.325Z,3.17
2023-01-09T19:08:50.492Z,3.30
2023-01-09T19:10:53.586Z,3.47
2023-01-09T19:12:55.987Z,2.80
2023-01-09T19:14:58.131Z,3.20
2023-01-09T19:17:01.350Z,3.43
2023-01-09T19:19:03.606Z,2.80
2023-01-09T19:21:13.174Z,2.83
2023-01-09T19:23:16.472Z,2.67
2023-01-09T19:25:18.613Z,4.60
2023-01-09T19:27:20.720Z,3.60
2023-01-09T19:29:22.845Z,3.50
2023-01-09T19:31:28.227Z,3.10
2023-01-09T19:33:30.410Z,3.40
2023-01-09T19:35:34.115Z,3.90
2023-01-09T19:37:37.349Z,3.80
2023-01-09T19:39:39.704Z,2.77
2023-01-09T19:41:42.124Z,3.50
2023-01-09T19:43:45.324Z,4.40
2023-01-09T19:45:47.600Z,3.90
2023-01-09T19:47:49.833Z,5.93
2023-01-09T19:49:51.925Z,8.80
2023-01-09T19:51:55.173Z,4.80
2023-01-09T19:56:10.960Z,4.80
2023-01-09T19:58:13.047Z,5.30
2023-01-09T20:00:15.502Z,6.50
2023-01-09T20:02:17.715Z,7.07
2023-01-09T20:04:20.234Z,8.30
2023-01-09T20:06:24.762Z,7.50
2023-01-09T20:08:27.380Z,5.07
2023-01-09T20:10:29.461Z,4.33
2023-01-09T20:12:32.448Z,3.97
2023-01-09T20:14:37.075Z,3.20
2023-01-09T20:16:39.504Z,4.40
2023-01-09T20:18:41.624Z,4.33
2023-01-09T20:20:49.428Z,8.90
2023-01-09T20:22:51.545Z,4.70
2023-01-09T20:24:53.601Z,5.40
2023-01-09T20:26:55.749Z,3.47
2023-01-09T20:28:58.422Z,7.33
2023-01-09T20:31:00.439Z,6.27
2023-01-09T20:33:02.519Z,6.00
2023-01-09T20:35:04.807Z,4.00
2023-01-09T20:37:06.912Z,5.43
2023-01-09T20:39:11.069Z,3.70
2023-01-09T20:41:32.827Z,5.83
2023-01-09T20:43:36.052Z,3.50
2023-01-09T20:45:39.127Z,2.30
2023-01-09T20:47:41.263Z,2.60
2023-01-09T20:49:43.278Z,2.27
2023-01-09T20:51:51.890Z,2.50
2023-01-09T20:53:58.444Z,3.30
2023-01-09T20:56:04.241Z,3.23
2023-01-09T20:58:06.334Z,3.77
2023-01-09T21:00:09.376Z,2.83
2023-01-09T21:02:14.895Z,2.87
2023-01-09T21:04:18.114Z,2.50
2023-01-09T21:06:21.659Z,2.60
2023-01-09T21:08:23.772Z,2.70
2023-01-09T21:10:26.133Z,2.30
2023-01-09T21:12:34.659Z,2.30
2023-01-09T21:14:38.881Z,2.70
2023-01-09T21:16:40.985Z,2.67
2023-01-09T21:18:43.992Z,2.57
2023-01-09T21:20:46.376Z,2.80
2023-01-09T21:22:49.244Z,2.70
2023-01-09T21:24:51.677Z,2.90
2023-01-09T21:26:53.735Z,2.70
2023-01-09T21:28:57.925Z,2.50
2023-01-09T21:31:00.036Z,2.70
2023-01-09T21:33:02.580Z,2.30
2023-01-09T21:35:06.238Z,2.60
2023-01-09T21:37:08.408Z,2.40
2023-01-09T21:39:15.578Z,2.90
2023-01-09T21:41:38.882Z,2.53
2023-01-09T21:43:59.630Z,2.90
2023-01-09T21:46:20.426Z,2.60
2023-01-09T21:48:23.992Z,2.83
2023-01-09T21:50:30.040Z,2.67
2023-01-09T21:52:35.571Z,2.90
2023-01-09T21:54:37.580Z,2.40
2023-01-09T21:56:39.691Z,2.90
2023-01-09T21:58:44.226Z,2.90
2023-01-09T22:00:46.529Z,2.70
2023-01-09T22:02:48.759Z,2.50
2023-01-09T22:04:51.388Z,2.80
2023-01-09T22:06:54.017Z,2.77
2023-01-09T22:08:56.382Z,2.50
2023-01-09T22:11:02.211Z,3.80
2023-01-09T22:13:16.007Z,3.57
2023-01-09T22:15:18.220Z,2.90
2023-01-09T22:17:20.413Z,3.13
2023-01-09T22:19:22.520Z,3.20
2023-01-09T22:21:25.333Z,3.47
2023-01-09T22:23:27.578Z,3.03
2023-01-09T22:25:29.922Z,2.80
2023-01-09T22:27:32.153Z,2.90
2023-01-09T22:29:34.305Z,3.37
2023-01-09T22:31:42.868Z,3.33
2023-01-09T22:33:50.792Z,2.70
2023-01-09T22:35:53.091Z,3.40
2023-01-09T22:37:55.172Z,2.90
2023-01-09T22:39:57.297Z,3.53
2023-01-09T22:41:59.401Z,3.23
2023-01-09T22:44:01.503Z,3.07
2023-01-09T22:46:05.971Z,3.50
2023-01-09T22:48:08.961Z,3.23
2023-01-09T22:50:11.503Z,3.40
2023-01-09T22:52:13.584Z,3.40
2023-01-09T22:54:15.753Z,2.50
2023-01-09T22:56:21.917Z,3.07
2023-01-09T22:58:31.564Z,3.13
2023-01-09T23:00:33.887Z,3.20
2023-01-09T23:02:36.229Z,3.50
2023-01-09T23:04:38.533Z,2.70
2023-01-09T23:06:40.699Z,3.03
2023-01-09T23:08:43.265Z,3.57
2023-01-09T23:10:45.365Z,3.17
2023-01-09T23:12:50.266Z,3.13
2023-01-09T23:14:52.443Z,3.47
2023-01-09T23:16:55.800Z,3.73
2023-01-09T23:18:57.898Z,3.80
2023-01-09T23:21:02.118Z,3.40
2023-01-09T23:23:04.296Z,3.47
2023-01-09T23:25:06.771Z,3.90
2023-01-09T23:27:09.330Z,3.87
2023-01-09T23:29:11.930Z,3.37
2023-01-09T23:31:15.768Z,3.70
2023-01-09T23:33:18.059Z,3.10
2023-01-09T23:35:20.206Z,3.97
2023-01-09T23:37:22.395Z,3.67
2023-01-09T23:39:24.738Z,3.50
2023-01-09T23:41:45.539Z,3.90
2023-01-09T23:43:47.710Z,3.80
2023-01-09T23:45:51.323Z,3.70
2023-01-09T23:47:53.437Z,3.53
2023-01-09T23:49:55.634Z,3.90
2023-01-09T23:51:58.104Z,4.00
2023-01-09T23:54:00.130Z,3.30
2023-01-09T23:56:03.081Z,4.03
2023-01-09T23:58:05.216Z,3.97
